sensor_id;sensor_type;location;lat;lon;timestamp;P1;durP1;ratioP1;P2;durP2;ratioP2
72590;SDS011;60625;51.212;5.952;2023-06-04T00:01:41;2.60;;;0.70;;
72590;SDS011;60625;51.212;5.952;2023-06-04T00:06:42;6.00;;;1.30;;
72590;SDS011;60625;51.212;5.952;2023-06-04T00:11:43;4.60;;;1.00;;
72590;SDS011;60625;51.212;5.952;2023-06-04T00:16:45;5.30;;;1.30;;
72590;SDS011;60625;51.212;5.952;2023-06-04T00:21:46;6.20;;;1.20;;
72590;SDS011;60625;51.212;5.952;2023-06-04T00:26:46;4.10;;;1.00;;
72590;SDS011;60625;51.212;5.952;2023-06-04T00:31:47;3.00;;;0.90;;
72590;SDS011;60625;51.212;5.952;2023-06-04T00:36:47;3.90;;;1.20;;
72590;SDS011;60625;51.212;5.952;2023-06-04T00:41:48;5.80;;;1.40;;
72590;SDS011;60625;51.212;5.952;2023-06-04T00:46:48;3.30;;;0.90;;
72590;SDS011;60625;51.212;5.952;2023-06-04T00:51:49;3.60;;;1.30;;
72590;SDS011;60625;51.212;5.952;2023-06-04T00:56:50;5.40;;;1.30;;
72590;SDS011;60625;51.212;5.952;2023-06-04T01:01:56;4.00;;;1.20;;
72590;SDS011;60625;51.212;5.952;2023-06-04T01:07:07;4.00;;;1.20;;
72590;SDS011;60625;51.212;5.952;2023-06-04T01:12:10;3.10;;;1.10;;
72590;SDS011;60625;51.212;5.952;2023-06-04T01:17:17;4.40;;;1.40;;
72590;SDS011;60625;51.212;5.952;2023-06-04T01:22:39;9.40;;;1.50;;
72590;SDS011;60625;51.212;5.952;2023-06-04T01:27:43;3.70;;;1.20;;
72590;SDS011;60625;51.212;5.952;2023-06-04T01:32:45;5.20;;;1.30;;
72590;SDS011;60625;51.212;5.952;2023-06-04T01:37:47;3.80;;;1.20;;
72590;SDS011;60625;51.212;5.952;2023-06-04T01:42:48;3.60;;;1.00;;
72590;SDS011;60625;51.212;5.952;2023-06-04T01:47:49;5.40;;;1.50;;
72590;SDS011;60625;51.212;5.952;2023-06-04T01:52:50;4.90;;;1.60;;
72590;SDS011;60625;51.212;5.952;2023-06-04T01:57:51;3.90;;;1.30;;
72590;SDS011;60625;51.212;5.952;2023-06-04T02:02:51;7.00;;;1.50;;
72590;SDS011;60625;51.212;5.952;2023-06-04T02:07:53;3.10;;;1.10;;
72590;SDS011;60625;51.212;5.952;2023-06-04T02:23:17;3.50;;;1.40;;
72590;SDS011;60625;51.212;5.952;2023-06-04T02:28:20;4.20;;;1.40;;
72590;SDS011;60625;51.212;5.952;2023-06-04T02:33:20;5.90;;;1.80;;
72590;SDS011;60625;51.212;5.952;2023-06-04T02:38:22;7.40;;;1.40;;
72590;SDS011;60625;51.212;5.952;2023-06-04T02:43:22;5.30;;;1.70;;
72590;SDS011;60625;51.212;5.952;2023-06-04T02:48:23;3.80;;;1.40;;
72590;SDS011;60625;51.212;5.952;2023-06-04T02:53:23;6.00;;;1.20;;
72590;SDS011;60625;51.212;5.952;2023-06-04T02:58:25;7.80;;;1.30;;
72590;SDS011;60625;51.212;5.952;2023-06-04T03:03:25;6.30;;;1.40;;
72590;SDS011;60625;51.212;5.952;2023-06-04T03:08:27;5.70;;;1.60;;
72590;SDS011;60625;51.212;5.952;2023-06-04T03:13:27;4.40;;;1.30;;
72590;SDS011;60625;51.212;5.952;2023-06-04T03:18:28;4.60;;;1.40;;
72590;SDS011;60625;51.212;5.952;2023-06-04T03:23:29;3.80;;;1.50;;
72590;SDS011;60625;51.212;5.952;2023-06-04T03:28:30;4.70;;;1.40;;
72590;SDS011;60625;51.212;5.952;2023-06-04T03:33:33;3.40;;;1.40;;
72590;SDS011;60625;51.212;5.952;2023-06-04T03:38:34;4.50;;;1.80;;
72590;SDS011;60625;51.212;5.952;2023-06-04T03:43:35;5.40;;;1.50;;
72590;SDS011;60625;51.212;5.952;2023-06-04T03:48:41;7.60;;;1.60;;
72590;SDS011;60625;51.212;5.952;2023-06-04T03:53:42;4.50;;;1.60;;
72590;SDS011;60625;51.212;5.952;2023-06-04T03:58:43;4.50;;;1.90;;
72590;SDS011;60625;51.212;5.952;2023-06-04T04:03:44;3.60;;;1.30;;
72590;SDS011;60625;51.212;5.952;2023-06-04T04:08:48;5.60;;;1.40;;
72590;SDS011;60625;51.212;5.952;2023-06-04T04:13:50;6.50;;;1.70;;
72590;SDS011;60625;51.212;5.952;2023-06-04T04:18:51;5.50;;;1.50;;
72590;SDS011;60625;51.212;5.952;2023-06-04T04:23:51;6.60;;;1.70;;
72590;SDS011;60625;51.212;5.952;2023-06-04T04:28:52;4.20;;;1.60;;
72590;SDS011;60625;51.212;5.952;2023-06-04T04:33:58;5.10;;;1.60;;
72590;SDS011;60625;51.212;5.952;2023-06-04T04:39:01;5.60;;;2.00;;
72590;SDS011;60625;51.212;5.952;2023-06-04T04:44:06;7.10;;;2.70;;
72590;SDS011;60625;51.212;5.952;2023-06-04T04:49:07;5.50;;;1.60;;
72590;SDS011;60625;51.212;5.952;2023-06-04T04:54:08;4.90;;;2.10;;
72590;SDS011;60625;51.212;5.952;2023-06-04T04:59:10;5.70;;;1.70;;
72590;SDS011;60625;51.212;5.952;2023-06-04T05:04:12;5.50;;;1.80;;
72590;SDS011;60625;51.212;5.952;2023-06-04T05:09:14;6.10;;;2.00;;
72590;SDS011;60625;51.212;5.952;2023-06-04T05:14:16;7.10;;;2.00;;
72590;SDS011;60625;51.212;5.952;2023-06-04T05:19:18;6.50;;;1.90;;
72590;SDS011;60625;51.212;5.952;2023-06-04T05:24:20;5.60;;;2.30;;
72590;SDS011;60625;51.212;5.952;2023-06-04T05:29:22;6.10;;;2.20;;
72590;SDS011;60625;51.212;5.952;2023-06-04T05:34:24;6.10;;;2.20;;
72590;SDS011;60625;51.212;5.952;2023-06-04T05:39:25;7.80;;;2.30;;
72590;SDS011;60625;51.212;5.952;2023-06-04T05:44:40;4.80;;;2.40;;
72590;SDS011;60625;51.212;5.952;2023-06-04T05:49:42;5.60;;;2.30;;
72590;SDS011;60625;51.212;5.952;2023-06-04T05:54:43;7.50;;;2.30;;
72590;SDS011;60625;51.212;5.952;2023-06-04T05:59:44;8.10;;;2.40;;
72590;SDS011;60625;51.212;5.952;2023-06-04T06:04:47;9.20;;;2.30;;
72590;SDS011;60625;51.212;5.952;2023-06-04T06:09:48;7.40;;;2.20;;
72590;SDS011;60625;51.212;5.952;2023-06-04T06:14:49;5.00;;;2.00;;
72590;SDS011;60625;51.212;5.952;2023-06-04T06:19:49;7.30;;;2.50;;
72590;SDS011;60625;51.212;5.952;2023-06-04T06:24:50;4.70;;;2.30;;
72590;SDS011;60625;51.212;5.952;2023-06-04T06:29:51;7.40;;;2.30;;
72590;SDS011;60625;51.212;5.952;2023-06-04T06:34:52;5.30;;;2.20;;
72590;SDS011;60625;51.212;5.952;2023-06-04T06:39:52;5.60;;;1.90;;
72590;SDS011;60625;51.212;5.952;2023-06-04T06:44:53;4.10;;;1.80;;
72590;SDS011;60625;51.212;5.952;2023-06-04T06:49:53;6.40;;;1.90;;
72590;SDS011;60625;51.212;5.952;2023-06-04T06:54:55;6.50;;;2.00;;
72590;SDS011;60625;51.212;5.952;2023-06-04T06:59:55;7.10;;;1.80;;
72590;SDS011;60625;51.212;5.952;2023-06-04T07:04:56;5.50;;;2.30;;
72590;SDS011;60625;51.212;5.952;2023-06-04T07:09:57;4.90;;;1.60;;
72590;SDS011;60625;51.212;5.952;2023-06-04T07:14:57;7.20;;;1.50;;
72590;SDS011;60625;51.212;5.952;2023-06-04T07:19:58;5.00;;;1.70;;
72590;SDS011;60625;51.212;5.952;2023-06-04T07:25:00;7.60;;;2.30;;
72590;SDS011;60625;51.212;5.952;2023-06-04T07:30:00;6.20;;;1.70;;
72590;SDS011;60625;51.212;5.952;2023-06-04T07:35:02;6.80;;;1.70;;
72590;SDS011;60625;51.212;5.952;2023-06-04T07:40:03;5.30;;;1.80;;
72590;SDS011;60625;51.212;5.952;2023-06-04T07:45:05;5.00;;;2.00;;
72590;SDS011;60625;51.212;5.952;2023-06-04T07:50:07;8.20;;;2.00;;
72590;SDS011;60625;51.212;5.952;2023-06-04T07:55:08;5.80;;;1.90;;
72590;SDS011;60625;51.212;5.952;2023-06-04T08:00:11;8.80;;;2.00;;
72590;SDS011;60625;51.212;5.952;2023-06-04T08:05:12;8.40;;;1.70;;
72590;SDS011;60625;51.212;5.952;2023-06-04T08:10:16;6.80;;;2.20;;
72590;SDS011;60625;51.212;5.952;2023-06-04T08:15:16;5.80;;;2.10;;
72590;SDS011;60625;51.212;5.952;2023-06-04T08:20:17;7.40;;;2.20;;
72590;SDS011;60625;51.212;5.952;2023-06-04T08:25:18;5.40;;;2.00;;
72590;SDS011;60625;51.212;5.952;2023-06-04T08:30:18;6.50;;;2.20;;
72590;SDS011;60625;51.212;5.952;2023-06-04T08:35:19;4.30;;;1.90;;
72590;SDS011;60625;51.212;5.952;2023-06-04T08:40:20;7.50;;;2.30;;
72590;SDS011;60625;51.212;5.952;2023-06-04T08:45:23;4.40;;;1.90;;
72590;SDS011;60625;51.212;5.952;2023-06-04T08:50:24;10.80;;;2.50;;
72590;SDS011;60625;51.212;5.952;2023-06-04T08:55:26;4.80;;;1.90;;
72590;SDS011;60625;51.212;5.952;2023-06-04T09:00:30;7.60;;;2.20;;
72590;SDS011;60625;51.212;5.952;2023-06-04T09:05:30;6.60;;;2.30;;
72590;SDS011;60625;51.212;5.952;2023-06-04T09:10:32;11.30;;;2.10;;
72590;SDS011;60625;51.212;5.952;2023-06-04T09:15:34;4.70;;;1.90;;
72590;SDS011;60625;51.212;5.952;2023-06-04T09:20:35;7.60;;;2.10;;
72590;SDS011;60625;51.212;5.952;2023-06-04T09:25:42;5.10;;;1.90;;
72590;SDS011;60625;51.212;5.952;2023-06-04T09:30:53;8.20;;;2.10;;
72590;SDS011;60625;51.212;5.952;2023-06-04T09:35:55;7.40;;;1.80;;
72590;SDS011;60625;51.212;5.952;2023-06-04T09:40:57;5.00;;;2.00;;
72590;SDS011;60625;51.212;5.952;2023-06-04T09:46:11;4.60;;;1.80;;
72590;SDS011;60625;51.212;5.952;2023-06-04T09:51:14;3.50;;;1.40;;
72590;SDS011;60625;51.212;5.952;2023-06-04T09:56:15;6.20;;;2.20;;
72590;SDS011;60625;51.212;5.952;2023-06-04T10:01:16;5.30;;;2.10;;
72590;SDS011;60625;51.212;5.952;2023-06-04T10:06:19;6.20;;;1.80;;
72590;SDS011;60625;51.212;5.952;2023-06-04T10:11:31;6.70;;;1.70;;
72590;SDS011;60625;51.212;5.952;2023-06-04T10:16:39;8.40;;;1.90;;
72590;SDS011;60625;51.212;5.952;2023-06-04T10:21:42;6.40;;;1.80;;
72590;SDS011;60625;51.212;5.952;2023-06-04T10:26:42;8.60;;;2.20;;
72590;SDS011;60625;51.212;5.952;2023-06-04T10:31:44;5.50;;;1.80;;
72590;SDS011;60625;51.212;5.952;2023-06-04T10:36:45;4.40;;;1.60;;
72590;SDS011;60625;51.212;5.952;2023-06-04T10:41:57;5.10;;;1.70;;
72590;SDS011;60625;51.212;5.952;2023-06-04T10:46:58;6.40;;;2.00;;
72590;SDS011;60625;51.212;5.952;2023-06-04T10:52:09;10.20;;;1.90;;
72590;SDS011;60625;51.212;5.952;2023-06-04T11:02:18;5.60;;;2.20;;
72590;SDS011;60625;51.212;5.952;2023-06-04T11:07:19;4.90;;;1.80;;
72590;SDS011;60625;51.212;5.952;2023-06-04T11:12:21;5.30;;;1.80;;
72590;SDS011;60625;51.212;5.952;2023-06-04T11:17:23;5.20;;;2.00;;
72590;SDS011;60625;51.212;5.952;2023-06-04T11:22:23;5.50;;;2.10;;
72590;SDS011;60625;51.212;5.952;2023-06-04T11:27:24;6.50;;;1.80;;
72590;SDS011;60625;51.212;5.952;2023-06-04T11:32:25;6.80;;;1.90;;
72590;SDS011;60625;51.212;5.952;2023-06-04T11:37:26;7.00;;;1.80;;
72590;SDS011;60625;51.212;5.952;2023-06-04T11:42:31;7.70;;;1.80;;
72590;SDS011;60625;51.212;5.952;2023-06-04T11:47:31;4.90;;;1.70;;
72590;SDS011;60625;51.212;5.952;2023-06-04T11:52:33;6.40;;;2.00;;
72590;SDS011;60625;51.212;5.952;2023-06-04T11:57:34;5.20;;;1.90;;
72590;SDS011;60625;51.212;5.952;2023-06-04T12:02:39;4.80;;;1.70;;
72590;SDS011;60625;51.212;5.952;2023-06-04T12:07:50;5.00;;;1.70;;
72590;SDS011;60625;51.212;5.952;2023-06-04T12:12:55;3.80;;;1.30;;
72590;SDS011;60625;51.212;5.952;2023-06-04T12:17:56;5.40;;;1.40;;
72590;SDS011;60625;51.212;5.952;2023-06-04T12:22:56;4.20;;;1.90;;
72590;SDS011;60625;51.212;5.952;2023-06-04T12:27:57;7.90;;;2.00;;
72590;SDS011;60625;51.212;5.952;2023-06-04T12:32:57;4.40;;;2.20;;
72590;SDS011;60625;51.212;5.952;2023-06-04T12:37:57;5.60;;;1.70;;
72590;SDS011;60625;51.212;5.952;2023-06-04T12:42:58;5.20;;;2.00;;
72590;SDS011;60625;51.212;5.952;2023-06-04T12:47:59;6.00;;;2.20;;
72590;SDS011;60625;51.212;5.952;2023-06-04T12:52:59;7.40;;;2.10;;
72590;SDS011;60625;51.212;5.952;2023-06-04T12:58:00;4.30;;;1.80;;
72590;SDS011;60625;51.212;5.952;2023-06-04T13:03:01;4.10;;;2.00;;
72590;SDS011;60625;51.212;5.952;2023-06-04T13:08:01;7.40;;;2.10;;
72590;SDS011;60625;51.212;5.952;2023-06-04T13:13:02;6.70;;;2.60;;
72590;SDS011;60625;51.212;5.952;2023-06-04T13:18:03;4.20;;;2.00;;
72590;SDS011;60625;51.212;5.952;2023-06-04T13:23:03;4.90;;;1.80;;
72590;SDS011;60625;51.212;5.952;2023-06-04T13:28:04;5.30;;;1.80;;
72590;SDS011;60625;51.212;5.952;2023-06-04T13:33:05;6.00;;;1.80;;
72590;SDS011;60625;51.212;5.952;2023-06-04T13:38:06;7.30;;;1.80;;
72590;SDS011;60625;51.212;5.952;2023-06-04T13:43:07;6.20;;;2.40;;
72590;SDS011;60625;51.212;5.952;2023-06-04T13:48:08;4.60;;;2.10;;
72590;SDS011;60625;51.212;5.952;2023-06-04T13:53:10;4.10;;;2.00;;
72590;SDS011;60625;51.212;5.952;2023-06-04T13:58:11;3.80;;;1.60;;
72590;SDS011;60625;51.212;5.952;2023-06-04T14:03:11;6.20;;;2.00;;
72590;SDS011;60625;51.212;5.952;2023-06-04T14:08:12;4.50;;;1.80;;
72590;SDS011;60625;51.212;5.952;2023-06-04T14:13:13;8.40;;;2.40;;
72590;SDS011;60625;51.212;5.952;2023-06-04T14:18:13;3.90;;;1.80;;
72590;SDS011;60625;51.212;5.952;2023-06-04T14:23:14;5.00;;;2.00;;
72590;SDS011;60625;51.212;5.952;2023-06-04T14:28:16;4.60;;;1.80;;
72590;SDS011;60625;51.212;5.952;2023-06-04T14:33:18;4.50;;;1.90;;
72590;SDS011;60625;51.212;5.952;2023-06-04T14:38:19;5.50;;;2.50;;
72590;SDS011;60625;51.212;5.952;2023-06-04T14:43:20;4.30;;;1.90;;
72590;SDS011;60625;51.212;5.952;2023-06-04T14:48:20;5.50;;;1.90;;
72590;SDS011;60625;51.212;5.952;2023-06-04T14:53:22;4.30;;;1.70;;
72590;SDS011;60625;51.212;5.952;2023-06-04T14:58:23;4.90;;;1.90;;
72590;SDS011;60625;51.212;5.952;2023-06-04T15:03:24;4.70;;;2.10;;
72590;SDS011;60625;51.212;5.952;2023-06-04T15:08:25;7.60;;;2.10;;
72590;SDS011;60625;51.212;5.952;2023-06-04T15:13:26;6.10;;;1.70;;
72590;SDS011;60625;51.212;5.952;2023-06-04T15:18:27;8.20;;;1.80;;
72590;SDS011;60625;51.212;5.952;2023-06-04T15:23:27;5.60;;;2.20;;
72590;SDS011;60625;51.212;5.952;2023-06-04T15:28:28;5.50;;;2.00;;
72590;SDS011;60625;51.212;5.952;2023-06-04T15:33:28;4.10;;;2.20;;
72590;SDS011;60625;51.212;5.952;2023-06-04T15:38:29;4.60;;;1.80;;
72590;SDS011;60625;51.212;5.952;2023-06-04T15:43:30;5.20;;;1.80;;
72590;SDS011;60625;51.212;5.952;2023-06-04T15:48:30;4.60;;;2.20;;
72590;SDS011;60625;51.212;5.952;2023-06-04T15:53:31;5.10;;;1.90;;
72590;SDS011;60625;51.212;5.952;2023-06-04T15:58:32;4.50;;;2.00;;
72590;SDS011;60625;51.212;5.952;2023-06-04T16:03:32;4.00;;;1.80;;
72590;SDS011;60625;51.212;5.952;2023-06-04T16:08:33;5.30;;;1.80;;
72590;SDS011;60625;51.212;5.952;2023-06-04T16:13:33;5.70;;;2.10;;
72590;SDS011;60625;51.212;5.952;2023-06-04T16:18:34;5.80;;;1.80;;
72590;SDS011;60625;51.212;5.952;2023-06-04T16:23:37;6.90;;;1.80;;
72590;SDS011;60625;51.212;5.952;2023-06-04T16:28:38;6.90;;;1.90;;
72590;SDS011;60625;51.212;5.952;2023-06-04T16:33:39;3.70;;;1.60;;
72590;SDS011;60625;51.212;5.952;2023-06-04T16:38:40;4.60;;;1.50;;
72590;SDS011;60625;51.212;5.952;2023-06-04T16:43:41;3.80;;;1.80;;
72590;SDS011;60625;51.212;5.952;2023-06-04T16:48:41;4.20;;;1.90;;
72590;SDS011;60625;51.212;5.952;2023-06-04T16:53:42;6.00;;;1.60;;
72590;SDS011;60625;51.212;5.952;2023-06-04T16:58:42;4.60;;;1.70;;
72590;SDS011;60625;51.212;5.952;2023-06-04T17:03:44;4.60;;;2.00;;
72590;SDS011;60625;51.212;5.952;2023-06-04T17:08:45;10.50;;;2.20;;
72590;SDS011;60625;51.212;5.952;2023-06-04T17:13:46;5.50;;;1.90;;
72590;SDS011;60625;51.212;5.952;2023-06-04T17:18:47;5.20;;;1.70;;
72590;SDS011;60625;51.212;5.952;2023-06-04T17:23:48;4.80;;;1.80;;
72590;SDS011;60625;51.212;5.952;2023-06-04T17:28:48;4.00;;;1.70;;
72590;SDS011;60625;51.212;5.952;2023-06-04T17:33:50;6.60;;;1.90;;
72590;SDS011;60625;51.212;5.952;2023-06-04T17:38:51;5.40;;;2.40;;
72590;SDS011;60625;51.212;5.952;2023-06-04T17:43:52;3.30;;;1.60;;
72590;SDS011;60625;51.212;5.952;2023-06-04T17:48:54;6.40;;;1.80;;
72590;SDS011;60625;51.212;5.952;2023-06-04T17:53:55;3.50;;;1.60;;
72590;SDS011;60625;51.212;5.952;2023-06-04T17:58:56;8.00;;;1.50;;
72590;SDS011;60625;51.212;5.952;2023-06-04T18:03:57;7.70;;;1.70;;
72590;SDS011;60625;51.212;5.952;2023-06-04T18:08:57;5.20;;;1.60;;
72590;SDS011;60625;51.212;5.952;2023-06-04T18:13:58;5.60;;;1.70;;
72590;SDS011;60625;51.212;5.952;2023-06-04T18:19:00;3.90;;;1.50;;
72590;SDS011;60625;51.212;5.952;2023-06-04T18:24:01;3.80;;;1.70;;
72590;SDS011;60625;51.212;5.952;2023-06-04T18:29:02;3.90;;;1.80;;
72590;SDS011;60625;51.212;5.952;2023-06-04T18:34:02;5.10;;;1.30;;
72590;SDS011;60625;51.212;5.952;2023-06-04T18:39:04;5.20;;;1.70;;
72590;SDS011;60625;51.212;5.952;2023-06-04T18:44:06;5.40;;;1.70;;
72590;SDS011;60625;51.212;5.952;2023-06-04T18:49:06;4.60;;;1.40;;
72590;SDS011;60625;51.212;5.952;2023-06-04T18:54:07;4.40;;;1.30;;
72590;SDS011;60625;51.212;5.952;2023-06-04T18:59:11;3.60;;;1.30;;
72590;SDS011;60625;51.212;5.952;2023-06-04T19:04:13;4.20;;;1.70;;
72590;SDS011;60625;51.212;5.952;2023-06-04T19:09:14;4.40;;;1.60;;
72590;SDS011;60625;51.212;5.952;2023-06-04T19:14:14;4.00;;;1.20;;
72590;SDS011;60625;51.212;5.952;2023-06-04T19:19:15;4.50;;;1.60;;
72590;SDS011;60625;51.212;5.952;2023-06-04T19:24:16;4.10;;;1.40;;
72590;SDS011;60625;51.212;5.952;2023-06-04T19:29:16;3.50;;;1.60;;
72590;SDS011;60625;51.212;5.952;2023-06-04T19:34:18;8.00;;;1.60;;
72590;SDS011;60625;51.212;5.952;2023-06-04T19:39:18;5.00;;;1.50;;
72590;SDS011;60625;51.212;5.952;2023-06-04T19:44:19;5.60;;;1.30;;
72590;SDS011;60625;51.212;5.952;2023-06-04T19:49:20;4.40;;;1.50;;
72590;SDS011;60625;51.212;5.952;2023-06-04T19:54:20;5.20;;;1.80;;
72590;SDS011;60625;51.212;5.952;2023-06-04T19:59:21;6.70;;;1.50;;
72590;SDS011;60625;51.212;5.952;2023-06-04T20:04:21;7.40;;;1.60;;
72590;SDS011;60625;51.212;5.952;2023-06-04T20:09:22;4.00;;;1.40;;
72590;SDS011;60625;51.212;5.952;2023-06-04T20:14:24;6.90;;;1.60;;
72590;SDS011;60625;51.212;5.952;2023-06-04T20:19:24;4.70;;;1.80;;
72590;SDS011;60625;51.212;5.952;2023-06-04T20:24:25;6.00;;;1.40;;
72590;SDS011;60625;51.212;5.952;2023-06-04T20:29:25;4.20;;;1.80;;
72590;SDS011;60625;51.212;5.952;2023-06-04T20:34:27;6.50;;;1.80;;
72590;SDS011;60625;51.212;5.952;2023-06-04T20:39:29;5.30;;;1.70;;
72590;SDS011;60625;51.212;5.952;2023-06-04T20:44:37;6.30;;;1.70;;
72590;SDS011;60625;51.212;5.952;2023-06-04T20:49:38;4.40;;;1.70;;
72590;SDS011;60625;51.212;5.952;2023-06-04T20:54:38;4.40;;;1.50;;
72590;SDS011;60625;51.212;5.952;2023-06-04T20:59:39;4.00;;;1.50;;
72590;SDS011;60625;51.212;5.952;2023-06-04T21:04:39;6.50;;;1.80;;
72590;SDS011;60625;51.212;5.952;2023-06-04T21:09:40;6.80;;;1.80;;
72590;SDS011;60625;51.212;5.952;2023-06-04T21:14:41;8.20;;;1.70;;
72590;SDS011;60625;51.212;5.952;2023-06-04T21:19:41;7.60;;;1.90;;
72590;SDS011;60625;51.212;5.952;2023-06-04T21:24:43;5.40;;;1.60;;
72590;SDS011;60625;51.212;5.952;2023-06-04T21:29:45;4.10;;;1.60;;
72590;SDS011;60625;51.212;5.952;2023-06-04T21:34:46;5.60;;;1.90;;
72590;SDS011;60625;51.212;5.952;2023-06-04T21:39:48;4.30;;;1.30;;
72590;SDS011;60625;51.212;5.952;2023-06-04T21:44:48;5.30;;;1.80;;
72590;SDS011;60625;51.212;5.952;2023-06-04T21:49:49;7.00;;;1.90;;
72590;SDS011;60625;51.212;5.952;2023-06-04T21:54:49;5.80;;;1.40;;
72590;SDS011;60625;51.212;5.952;2023-06-04T21:59:50;5.70;;;1.70;;
72590;SDS011;60625;51.212;5.952;2023-06-04T22:04:50;6.10;;;1.70;;
72590;SDS011;60625;51.212;5.952;2023-06-04T22:09:51;6.60;;;1.80;;
72590;SDS011;60625;51.212;5.952;2023-06-04T22:14:51;6.30;;;2.00;;
72590;SDS011;60625;51.212;5.952;2023-06-04T22:19:52;6.20;;;2.00;;
72590;SDS011;60625;51.212;5.952;2023-06-04T22:24:52;6.40;;;1.60;;
72590;SDS011;60625;51.212;5.952;2023-06-04T22:29:53;7.60;;;2.00;;
72590;SDS011;60625;51.212;5.952;2023-06-04T22:34:53;4.90;;;1.60;;
72590;SDS011;60625;51.212;5.952;2023-06-04T22:39:54;4.80;;;1.70;;
72590;SDS011;60625;51.212;5.952;2023-06-04T22:44:55;4.00;;;1.60;;
72590;SDS011;60625;51.212;5.952;2023-06-04T22:49:56;6.80;;;1.90;;
72590;SDS011;60625;51.212;5.952;2023-06-04T22:54:56;6.30;;;2.10;;
72590;SDS011;60625;51.212;5.952;2023-06-04T22:59:56;8.70;;;2.00;;
72590;SDS011;60625;51.212;5.952;2023-06-04T23:04:57;7.40;;;1.90;;
72590;SDS011;60625;51.212;5.952;2023-06-04T23:09:57;4.80;;;1.60;;
72590;SDS011;60625;51.212;5.952;2023-06-04T23:14:58;7.20;;;2.10;;
72590;SDS011;60625;51.212;5.952;2023-06-04T23:19:58;7.20;;;2.00;;
72590;SDS011;60625;51.212;5.952;2023-06-04T23:24:59;5.70;;;1.90;;
72590;SDS011;60625;51.212;5.952;2023-06-04T23:30:00;5.90;;;2.10;;
72590;SDS011;60625;51.212;5.952;2023-06-04T23:35:01;5.20;;;1.90;;
72590;SDS011;60625;51.212;5.952;2023-06-04T23:40:05;6.10;;;2.00;;
72590;SDS011;60625;51.212;5.952;2023-06-04T23:45:07;6.50;;;1.80;;
72590;SDS011;60625;51.212;5.952;2023-06-04T23:50:08;6.60;;;2.10;;
72590;SDS011;60625;51.212;5.952;2023-06-04T23:55:09;8.60;;;2.30;;
